sensor_id;sensor_type;location;lat;lon;timestamp;temperature;humidity
70234;DHT22;57622;42.630;23.378;2022-07-29T00:01:16;19.63;71.56
70234;DHT22;57622;42.630;23.378;2022-07-29T00:03:41;19.39;72.59
70234;DHT22;57622;42.630;23.378;2022-07-29T00:06:07;19.50;72.30
70234;DHT22;57622;42.630;23.378;2022-07-29T00:08:33;19.53;72.61
70234;DHT22;57622;42.630;23.378;2022-07-29T00:10:58;19.46;73.09
70234;DHT22;57622;42.630;23.378;2022-07-29T00:13:24;19.50;72.94
70234;DHT22;57622;42.630;23.378;2022-07-29T00:15:49;19.59;72.49
70234;DHT22;57622;42.630;23.378;2022-07-29T00:18:15;19.69;72.07
70234;DHT22;57622;42.630;23.378;2022-07-29T00:20:40;19.77;71.69
70234;DHT22;57622;42.630;23.378;2022-07-29T00:23:06;20.01;70.68
70234;DHT22;57622;42.630;23.378;2022-07-29T00:25:31;20.04;70.48
70234;DHT22;57622;42.630;23.378;2022-07-29T00:27:57;20.11;70.42
70234;DHT22;57622;42.630;23.378;2022-07-29T00:30:22;20.21;70.25
70234;DHT22;57622;42.630;23.378;2022-07-29T00:32:48;20.29;70.30
70234;DHT22;57622;42.630;23.378;2022-07-29T00:35:13;20.41;70.06
70234;DHT22;57622;42.630;23.378;2022-07-29T00:37:57;20.10;71.06
70234;DHT22;57622;42.630;23.378;2022-07-29T00:40:22;19.96;72.00
70234;DHT22;57622;42.630;23.378;2022-07-29T00:42:49;19.98;72.11
70234;DHT22;57622;42.630;23.378;2022-07-29T00:45:16;19.84;72.59
70234;DHT22;57622;42.630;23.378;2022-07-29T00:47:42;19.80;72.96
70234;DHT22;57622;42.630;23.378;2022-07-29T00:50:09;19.83;73.11
70234;DHT22;57622;42.630;23.378;2022-07-29T00:52:37;20.00;72.45
70234;DHT22;57622;42.630;23.378;2022-07-29T00:55:04;19.98;72.32
70234;DHT22;57622;42.630;23.378;2022-07-29T00:57:30;19.94;72.48
70234;DHT22;57622;42.630;23.378;2022-07-29T00:59:56;20.01;72.20
70234;DHT22;57622;42.630;23.378;2022-07-29T01:02:21;20.07;71.78
70234;DHT22;57622;42.630;23.378;2022-07-29T01:04:47;20.25;71.31
70234;DHT22;57622;42.630;23.378;2022-07-29T01:07:13;20.29;71.06
70234;DHT22;57622;42.630;23.378;2022-07-29T01:09:39;20.32;70.83
70234;DHT22;57622;42.630;23.378;2022-07-29T01:12:05;20.38;71.04
70234;DHT22;57622;42.630;23.378;2022-07-29T01:14:31;20.27;71.00
70234;DHT22;57622;42.630;23.378;2022-07-29T01:16:59;20.27;71.32
70234;DHT22;57622;42.630;23.378;2022-07-29T01:19:47;20.24;71.36
70234;DHT22;57622;42.630;23.378;2022-07-29T01:28:08;20.38;70.97
70234;DHT22;57622;42.630;23.378;2022-07-29T01:30:36;20.39;70.62
70234;DHT22;57622;42.630;23.378;2022-07-29T01:33:07;20.49;70.38
70234;DHT22;57622;42.630;23.378;2022-07-29T01:35:38;20.55;70.11
70234;DHT22;57622;42.630;23.378;2022-07-29T01:38:14;20.66;69.80
70234;DHT22;57622;42.630;23.378;2022-07-29T01:40:55;20.69;69.77
70234;DHT22;57622;42.630;23.378;2022-07-29T01:43:39;20.62;69.81
70234;DHT22;57622;42.630;23.378;2022-07-29T01:46:10;20.68;69.50
70234;DHT22;57622;42.630;23.378;2022-07-29T01:48:50;20.75;69.55
70234;DHT22;57622;42.630;23.378;2022-07-29T01:51:20;20.59;70.25
70234;DHT22;57622;42.630;23.378;2022-07-29T01:54:04;20.48;70.52
70234;DHT22;57622;42.630;23.378;2022-07-29T01:56:31;20.37;70.73
70234;DHT22;57622;42.630;23.378;2022-07-29T01:58:59;20.17;71.36
70234;DHT22;57622;42.630;23.378;2022-07-29T02:01:26;20.13;71.91
70234;DHT22;57622;42.630;23.378;2022-07-29T02:03:53;20.01;72.28
70234;DHT22;57622;42.630;23.378;2022-07-29T02:06:22;19.90;72.39
70234;DHT22;57622;42.630;23.378;2022-07-29T02:08:49;19.62;73.50
70234;DHT22;57622;42.630;23.378;2022-07-29T02:11:16;19.63;73.82
70234;DHT22;57622;42.630;23.378;2022-07-29T02:13:43;19.36;74.63
70234;DHT22;57622;42.630;23.378;2022-07-29T02:16:10;19.38;74.66
70234;DHT22;57622;42.630;23.378;2022-07-29T02:18:39;19.42;74.53
70234;DHT22;57622;42.630;23.378;2022-07-29T02:21:06;19.33;74.85
70234;DHT22;57622;42.630;23.378;2022-07-29T02:23:34;19.11;75.55
70234;DHT22;57622;42.630;23.378;2022-07-29T02:26:01;19.22;75.13
70234;DHT22;57622;42.630;23.378;2022-07-29T02:28:28;19.33;74.67
70234;DHT22;57622;42.630;23.378;2022-07-29T02:30:58;19.18;74.97
70234;DHT22;57622;42.630;23.378;2022-07-29T02:33:25;19.02;75.73
70234;DHT22;57622;42.630;23.378;2022-07-29T02:35:52;19.10;75.41
70234;DHT22;57622;42.630;23.378;2022-07-29T02:38:18;19.02;75.85
70234;DHT22;57622;42.630;23.378;2022-07-29T02:41:08;19.12;75.55
70234;DHT22;57622;42.630;23.378;2022-07-29T02:43:36;19.22;75.15
70234;DHT22;57622;42.630;23.378;2022-07-29T02:46:05;19.23;75.00
70234;DHT22;57622;42.630;23.378;2022-07-29T02:48:51;19.16;75.57
70234;DHT22;57622;42.630;23.378;2022-07-29T02:51:28;19.15;75.54
70234;DHT22;57622;42.630;23.378;2022-07-29T02:53:58;19.16;75.43
70234;DHT22;57622;42.630;23.378;2022-07-29T02:56:27;19.02;76.05
70234;DHT22;57622;42.630;23.378;2022-07-29T02:58:58;19.14;75.29
70234;DHT22;57622;42.630;23.378;2022-07-29T03:01:25;18.95;76.17
70234;DHT22;57622;42.630;23.378;2022-07-29T03:03:54;18.92;76.19
70234;DHT22;57622;42.630;23.378;2022-07-29T03:06:22;19.05;75.82
70234;DHT22;57622;42.630;23.378;2022-07-29T03:08:49;19.05;75.83
70234;DHT22;57622;42.630;23.378;2022-07-29T03:11:16;18.83;76.48
70234;DHT22;57622;42.630;23.378;2022-07-29T03:13:43;18.83;76.73
70234;DHT22;57622;42.630;23.378;2022-07-29T03:16:09;18.80;76.60
70234;DHT22;57622;42.630;23.378;2022-07-29T03:18:36;18.61;77.46
70234;DHT22;57622;42.630;23.378;2022-07-29T03:21:02;18.54;77.84
70234;DHT22;57622;42.630;23.378;2022-07-29T03:23:28;18.70;77.35
70234;DHT22;57622;42.630;23.378;2022-07-29T03:25:54;18.67;77.40
70234;DHT22;57622;42.630;23.378;2022-07-29T03:28:20;18.91;76.64
70234;DHT22;57622;42.630;23.378;2022-07-29T03:30:46;18.90;76.48
70234;DHT22;57622;42.630;23.378;2022-07-29T03:33:12;18.91;76.55
70234;DHT22;57622;42.630;23.378;2022-07-29T03:35:37;18.85;76.60
70234;DHT22;57622;42.630;23.378;2022-07-29T03:38:03;18.78;76.71
70234;DHT22;57622;42.630;23.378;2022-07-29T03:40:35;18.88;76.61
70234;DHT22;57622;42.630;23.378;2022-07-29T03:43:03;19.00;75.90
70234;DHT22;57622;42.630;23.378;2022-07-29T03:45:31;18.95;76.04
70234;DHT22;57622;42.630;23.378;2022-07-29T03:48:01;19.00;75.95
70234;DHT22;57622;42.630;23.378;2022-07-29T03:50:28;19.25;75.66
70234;DHT22;57622;42.630;23.378;2022-07-29T03:52:55;19.50;74.55
70234;DHT22;57622;42.630;23.378;2022-07-29T03:55:20;19.69;74.22
70234;DHT22;57622;42.630;23.378;2022-07-29T03:57:46;19.60;73.97
70234;DHT22;57622;42.630;23.378;2022-07-29T04:00:13;19.42;74.58
70234;DHT22;57622;42.630;23.378;2022-07-29T04:02:40;19.53;74.24
70234;DHT22;57622;42.630;23.378;2022-07-29T04:05:14;19.56;74.16
70234;DHT22;57622;42.630;23.378;2022-07-29T04:07:42;19.29;74.79
70234;DHT22;57622;42.630;23.378;2022-07-29T04:10:08;19.22;75.32
70234;DHT22;57622;42.630;23.378;2022-07-29T04:12:34;19.28;75.16
70234;DHT22;57622;42.630;23.378;2022-07-29T04:14:59;19.08;75.99
70234;DHT22;57622;42.630;23.378;2022-07-29T04:17:25;19.07;76.20
70234;DHT22;57622;42.630;23.378;2022-07-29T04:19:50;18.92;76.51
70234;DHT22;57622;42.630;23.378;2022-07-29T04:22:15;19.12;75.80
70234;DHT22;57622;42.630;23.378;2022-07-29T04:24:41;19.10;76.09
70234;DHT22;57622;42.630;23.378;2022-07-29T04:27:06;19.49;74.74
70234;DHT22;57622;42.630;23.378;2022-07-29T04:29:32;19.45;74.83
70234;DHT22;57622;42.630;23.378;2022-07-29T04:31:57;19.46;74.66
70234;DHT22;57622;42.630;23.378;2022-07-29T04:34:23;19.50;74.54
70234;DHT22;57622;42.630;23.378;2022-07-29T04:36:48;19.70;74.24
70234;DHT22;57622;42.630;23.378;2022-07-29T04:39:14;19.63;73.78
70234;DHT22;57622;42.630;23.378;2022-07-29T04:41:39;19.70;73.48
70234;DHT22;57622;42.630;23.378;2022-07-29T04:44:05;19.84;73.69
70234;DHT22;57622;42.630;23.378;2022-07-29T04:46:31;19.96;73.11
70234;DHT22;57622;42.630;23.378;2022-07-29T04:48:57;19.96;73.01
70234;DHT22;57622;42.630;23.378;2022-07-29T04:51:22;20.08;72.40
70234;DHT22;57622;42.630;23.378;2022-07-29T04:53:48;20.22;72.23
70234;DHT22;57622;42.630;23.378;2022-07-29T04:56:13;20.29;72.06
70234;DHT22;57622;42.630;23.378;2022-07-29T04:58:39;20.39;72.21
70234;DHT22;57622;42.630;23.378;2022-07-29T05:01:04;20.48;72.39
70234;DHT22;57622;42.630;23.378;2022-07-29T05:03:30;20.38;72.62
70234;DHT22;57622;42.630;23.378;2022-07-29T05:05:55;20.51;72.52
70234;DHT22;57622;42.630;23.378;2022-07-29T05:08:21;20.69;71.97
70234;DHT22;57622;42.630;23.378;2022-07-29T05:10:46;20.73;72.27
70234;DHT22;57622;42.630;23.378;2022-07-29T05:13:12;20.86;71.94
70234;DHT22;57622;42.630;23.378;2022-07-29T05:15:37;20.76;72.01
70234;DHT22;57622;42.630;23.378;2022-07-29T05:18:03;20.56;72.93
70234;DHT22;57622;42.630;23.378;2022-07-29T05:20:29;20.62;72.97
70234;DHT22;57622;42.630;23.378;2022-07-29T05:22:57;20.85;73.09
70234;DHT22;57622;42.630;23.378;2022-07-29T05:25:23;21.13;72.63
70234;DHT22;57622;42.630;23.378;2022-07-29T05:27:49;21.36;71.49
70234;DHT22;57622;42.630;23.378;2022-07-29T05:30:15;21.54;70.61
70234;DHT22;57622;42.630;23.378;2022-07-29T05:32:40;21.54;69.98
70234;DHT22;57622;42.630;23.378;2022-07-29T05:35:06;21.38;70.05
70234;DHT22;57622;42.630;23.378;2022-07-29T05:37:32;21.40;70.39
70234;DHT22;57622;42.630;23.378;2022-07-29T05:39:58;21.44;69.91
70234;DHT22;57622;42.630;23.378;2022-07-29T05:42:24;21.53;69.87
70234;DHT22;57622;42.630;23.378;2022-07-29T05:44:50;21.58;69.74
70234;DHT22;57622;42.630;23.378;2022-07-29T05:47:16;21.61;69.77
70234;DHT22;57622;42.630;23.378;2022-07-29T05:49:41;21.55;69.79
70234;DHT22;57622;42.630;23.378;2022-07-29T05:52:08;21.54;69.94
70234;DHT22;57622;42.630;23.378;2022-07-29T05:54:34;21.57;70.18
70234;DHT22;57622;42.630;23.378;2022-07-29T05:57:00;21.68;69.22
70234;DHT22;57622;42.630;23.378;2022-07-29T05:59:26;21.73;68.84
70234;DHT22;57622;42.630;23.378;2022-07-29T06:01:51;21.79;68.85
70234;DHT22;57622;42.630;23.378;2022-07-29T06:04:17;21.78;68.53
70234;DHT22;57622;42.630;23.378;2022-07-29T06:06:43;21.86;68.79
70234;DHT22;57622;42.630;23.378;2022-07-29T06:09:08;22.02;68.27
70234;DHT22;57622;42.630;23.378;2022-07-29T06:11:33;22.16;67.91
70234;DHT22;57622;42.630;23.378;2022-07-29T06:13:59;22.40;67.74
70234;DHT22;57622;42.630;23.378;2022-07-29T06:16:24;22.53;67.53
70234;DHT22;57622;42.630;23.378;2022-07-29T06:18:50;22.63;66.67
70234;DHT22;57622;42.630;23.378;2022-07-29T06:21:15;22.74;66.69
70234;DHT22;57622;42.630;23.378;2022-07-29T06:23:41;22.91;67.18
70234;DHT22;57622;42.630;23.378;2022-07-29T06:26:07;23.14;65.55
70234;DHT22;57622;42.630;23.378;2022-07-29T06:28:33;23.12;64.69
70234;DHT22;57622;42.630;23.378;2022-07-29T06:30:59;23.33;65.28
70234;DHT22;57622;42.630;23.378;2022-07-29T06:33:24;23.48;65.89
70234;DHT22;57622;42.630;23.378;2022-07-29T06:35:50;23.58;65.54
70234;DHT22;57622;42.630;23.378;2022-07-29T06:38:15;23.60;64.50
70234;DHT22;57622;42.630;23.378;2022-07-29T06:40:45;23.45;64.38
70234;DHT22;57622;42.630;23.378;2022-07-29T06:43:39;23.35;64.54
70234;DHT22;57622;42.630;23.378;2022-07-29T06:46:14;23.46;64.33
70234;DHT22;57622;42.630;23.378;2022-07-29T06:48:41;23.69;63.00
70234;DHT22;57622;42.630;23.378;2022-07-29T06:51:10;23.65;62.71
70234;DHT22;57622;42.630;23.378;2022-07-29T06:53:38;23.67;63.09
70234;DHT22;57622;42.630;23.378;2022-07-29T06:56:04;23.81;63.16
70234;DHT22;57622;42.630;23.378;2022-07-29T06:58:31;24.08;63.02
70234;DHT22;57622;42.630;23.378;2022-07-29T07:00:58;24.25;64.61
70234;DHT22;57622;42.630;23.378;2022-07-29T07:03:24;24.32;63.17
70234;DHT22;57622;42.630;23.378;2022-07-29T07:05:50;24.30;61.41
70234;DHT22;57622;42.630;23.378;2022-07-29T07:08:16;24.51;62.03
70234;DHT22;57622;42.630;23.378;2022-07-29T07:10:42;24.51;60.02
70234;DHT22;57622;42.630;23.378;2022-07-29T07:13:08;24.68;60.47
70234;DHT22;57622;42.630;23.378;2022-07-29T07:15:35;24.76;61.82
70234;DHT22;57622;42.630;23.378;2022-07-29T07:18:01;24.95;61.63
70234;DHT22;57622;42.630;23.378;2022-07-29T07:20:27;25.07;61.29
70234;DHT22;57622;42.630;23.378;2022-07-29T07:22:52;25.22;60.65
70234;DHT22;57622;42.630;23.378;2022-07-29T07:25:18;25.16;59.72
70234;DHT22;57622;42.630;23.378;2022-07-29T07:27:44;25.22;58.50
70234;DHT22;57622;42.630;23.378;2022-07-29T07:30:10;25.28;59.32
70234;DHT22;57622;42.630;23.378;2022-07-29T07:32:36;25.37;58.94
70234;DHT22;57622;42.630;23.378;2022-07-29T07:35:02;25.46;58.78
70234;DHT22;57622;42.630;23.378;2022-07-29T07:37:28;25.57;58.64
70234;DHT22;57622;42.630;23.378;2022-07-29T07:39:54;25.58;57.68
70234;DHT22;57622;42.630;23.378;2022-07-29T07:42:19;25.73;56.83
70234;DHT22;57622;42.630;23.378;2022-07-29T07:44:45;25.88;55.90
70234;DHT22;57622;42.630;23.378;2022-07-29T07:47:14;26.04;56.15
70234;DHT22;57622;42.630;23.378;2022-07-29T07:49:39;26.15;56.80
70234;DHT22;57622;42.630;23.378;2022-07-29T07:52:05;26.23;55.34
70234;DHT22;57622;42.630;23.378;2022-07-29T07:54:30;26.36;55.93
70234;DHT22;57622;42.630;23.378;2022-07-29T07:56:56;26.44;55.82
70234;DHT22;57622;42.630;23.378;2022-07-29T07:59:22;26.59;55.44
70234;DHT22;57622;42.630;23.378;2022-07-29T08:01:47;26.73;54.75
70234;DHT22;57622;42.630;23.378;2022-07-29T08:04:13;26.74;54.73
70234;DHT22;57622;42.630;23.378;2022-07-29T08:06:38;26.84;55.95
70234;DHT22;57622;42.630;23.378;2022-07-29T08:09:04;26.88;54.20
70234;DHT22;57622;42.630;23.378;2022-07-29T08:11:30;26.90;54.22
70234;DHT22;57622;42.630;23.378;2022-07-29T08:13:56;27.00;53.20
70234;DHT22;57622;42.630;23.378;2022-07-29T08:16:21;27.02;53.33
70234;DHT22;57622;42.630;23.378;2022-07-29T08:18:47;27.21;50.78
70234;DHT22;57622;42.630;23.378;2022-07-29T08:21:14;27.32;52.20
70234;DHT22;57622;42.630;23.378;2022-07-29T08:23:40;27.35;50.89
70234;DHT22;57622;42.630;23.378;2022-07-29T08:26:11;27.42;51.73
70234;DHT22;57622;42.630;23.378;2022-07-29T08:28:38;27.48;51.12
70234;DHT22;57622;42.630;23.378;2022-07-29T08:31:04;27.60;50.87
70234;DHT22;57622;42.630;23.378;2022-07-29T08:33:29;27.78;51.14
70234;DHT22;57622;42.630;23.378;2022-07-29T08:35:55;27.92;49.97
70234;DHT22;57622;42.630;23.378;2022-07-29T08:38:20;27.89;50.02
70234;DHT22;57622;42.630;23.378;2022-07-29T08:40:46;28.07;49.98
70234;DHT22;57622;42.630;23.378;2022-07-29T08:43:11;28.09;46.54
70234;DHT22;57622;42.630;23.378;2022-07-29T08:45:49;28.14;45.66
70234;DHT22;57622;42.630;23.378;2022-07-29T08:48:17;28.27;47.43
70234;DHT22;57622;42.630;23.378;2022-07-29T08:50:44;28.34;45.63
70234;DHT22;57622;42.630;23.378;2022-07-29T08:53:15;28.34;45.48
70234;DHT22;57622;42.630;23.378;2022-07-29T08:55:46;28.34;47.50
70234;DHT22;57622;42.630;23.378;2022-07-29T08:58:13;28.51;45.91
70234;DHT22;57622;42.630;23.378;2022-07-29T09:00:42;28.79;46.04
70234;DHT22;57622;42.630;23.378;2022-07-29T09:03:09;28.85;44.79
70234;DHT22;57622;42.630;23.378;2022-07-29T09:05:37;28.68;44.41
70234;DHT22;57622;42.630;23.378;2022-07-29T09:08:06;28.74;45.13
70234;DHT22;57622;42.630;23.378;2022-07-29T09:10:32;28.72;44.29
70234;DHT22;57622;42.630;23.378;2022-07-29T09:12:57;29.03;44.30
70234;DHT22;57622;42.630;23.378;2022-07-29T09:15:23;29.05;44.95
70234;DHT22;57622;42.630;23.378;2022-07-29T09:17:49;29.00;44.21
70234;DHT22;57622;42.630;23.378;2022-07-29T09:20:17;29.03;44.68
70234;DHT22;57622;42.630;23.378;2022-07-29T09:22:42;29.15;44.01
70234;DHT22;57622;42.630;23.378;2022-07-29T09:25:11;29.12;43.44
70234;DHT22;57622;42.630;23.378;2022-07-29T09:27:37;28.88;43.69
70234;DHT22;57622;42.630;23.378;2022-07-29T09:30:05;28.80;43.28
70234;DHT22;57622;42.630;23.378;2022-07-29T09:32:32;28.71;45.00
70234;DHT22;57622;42.630;23.378;2022-07-29T09:35:17;29.09;45.10
70234;DHT22;57622;42.630;23.378;2022-07-29T09:37:43;29.29;44.04
70234;DHT22;57622;42.630;23.378;2022-07-29T09:40:14;29.02;44.18
70234;DHT22;57622;42.630;23.378;2022-07-29T09:42:41;29.13;44.08
70234;DHT22;57622;42.630;23.378;2022-07-29T09:45:06;29.12;44.25
70234;DHT22;57622;42.630;23.378;2022-07-29T09:47:45;29.31;44.19
70234;DHT22;57622;42.630;23.378;2022-07-29T09:50:12;29.51;43.91
70234;DHT22;57622;42.630;23.378;2022-07-29T09:52:46;29.25;43.97
70234;DHT22;57622;42.630;23.378;2022-07-29T09:55:13;29.06;44.47
70234;DHT22;57622;42.630;23.378;2022-07-29T09:57:39;29.00;44.30
70234;DHT22;57622;42.630;23.378;2022-07-29T10:02:37;29.42;45.04
70234;DHT22;57622;42.630;23.378;2022-07-29T10:05:26;29.56;43.31
70234;DHT22;57622;42.630;23.378;2022-07-29T10:07:58;29.57;42.72
70234;DHT22;57622;42.630;23.378;2022-07-29T10:10:26;29.80;43.24
70234;DHT22;57622;42.630;23.378;2022-07-29T10:12:56;29.94;42.57
70234;DHT22;57622;42.630;23.378;2022-07-29T10:15:24;30.05;42.05
70234;DHT22;57622;42.630;23.378;2022-07-29T10:17:51;30.12;42.53
70234;DHT22;57622;42.630;23.378;2022-07-29T10:20:18;30.25;40.45
70234;DHT22;57622;42.630;23.378;2022-07-29T10:22:44;30.22;41.23
70234;DHT22;57622;42.630;23.378;2022-07-29T10:25:12;30.37;40.95
70234;DHT22;57622;42.630;23.378;2022-07-29T10:27:38;30.52;41.03
70234;DHT22;57622;42.630;23.378;2022-07-29T10:30:05;30.76;41.28
70234;DHT22;57622;42.630;23.378;2022-07-29T10:44:29;30.43;40.89
70234;DHT22;57622;42.630;23.378;2022-07-29T10:46:55;30.63;39.67
70234;DHT22;57622;42.630;23.378;2022-07-29T10:49:22;30.72;39.26
70234;DHT22;57622;42.630;23.378;2022-07-29T10:51:59;30.72;38.44
70234;DHT22;57622;42.630;23.378;2022-07-29T10:54:45;30.84;38.82
70234;DHT22;57622;42.630;23.378;2022-07-29T10:57:24;30.62;39.25
70234;DHT22;57622;42.630;23.378;2022-07-29T11:05:14;30.35;39.06
70234;DHT22;57622;42.630;23.378;2022-07-29T11:10:39;30.43;38.56
70234;DHT22;57622;42.630;23.378;2022-07-29T11:13:05;30.64;38.63
70234;DHT22;57622;42.630;23.378;2022-07-29T11:15:53;30.79;37.99
70234;DHT22;57622;42.630;23.378;2022-07-29T11:18:20;30.63;38.06
70234;DHT22;57622;42.630;23.378;2022-07-29T11:20:47;30.90;37.56
70234;DHT22;57622;42.630;23.378;2022-07-29T11:26:13;31.00;36.72
70234;DHT22;57622;42.630;23.378;2022-07-29T11:31:36;30.90;36.11
70234;DHT22;57622;42.630;23.378;2022-07-29T11:34:35;31.06;36.57
70234;DHT22;57622;42.630;23.378;2022-07-29T11:39:45;31.24;36.10
70234;DHT22;57622;42.630;23.378;2022-07-29T11:45:06;31.18;36.05
70234;DHT22;57622;42.630;23.378;2022-07-29T11:47:37;31.17;35.92
70234;DHT22;57622;42.630;23.378;2022-07-29T11:50:04;31.31;35.92
70234;DHT22;57622;42.630;23.378;2022-07-29T11:52:36;31.35;35.24
70234;DHT22;57622;42.630;23.378;2022-07-29T11:55:09;31.38;36.14
70234;DHT22;57622;42.630;23.378;2022-07-29T11:57:34;31.17;35.34
70234;DHT22;57622;42.630;23.378;2022-07-29T12:00:02;31.34;34.67
70234;DHT22;57622;42.630;23.378;2022-07-29T12:02:40;31.58;35.04
70234;DHT22;57622;42.630;23.378;2022-07-29T12:05:07;31.76;35.48
70234;DHT22;57622;42.630;23.378;2022-07-29T12:07:34;31.61;34.99
70234;DHT22;57622;42.630;23.378;2022-07-29T12:10:00;31.45;35.29
70234;DHT22;57622;42.630;23.378;2022-07-29T12:12:26;31.39;34.88
70234;DHT22;57622;42.630;23.378;2022-07-29T12:14:52;31.49;34.49
70234;DHT22;57622;42.630;23.378;2022-07-29T12:17:30;31.46;35.08
70234;DHT22;57622;42.630;23.378;2022-07-29T12:19:58;31.30;34.88
70234;DHT22;57622;42.630;23.378;2022-07-29T12:22:31;31.25;35.08
70234;DHT22;57622;42.630;23.378;2022-07-29T12:25:03;31.25;34.79
70234;DHT22;57622;42.630;23.378;2022-07-29T12:27:29;31.30;34.47
70234;DHT22;57622;42.630;23.378;2022-07-29T12:29:56;31.37;34.86
70234;DHT22;57622;42.630;23.378;2022-07-29T12:32:22;31.55;34.83
70234;DHT22;57622;42.630;23.378;2022-07-29T12:34:48;31.39;34.68
70234;DHT22;57622;42.630;23.378;2022-07-29T12:37:14;31.45;34.48
70234;DHT22;57622;42.630;23.378;2022-07-29T12:39:40;31.51;34.63
70234;DHT22;57622;42.630;23.378;2022-07-29T12:42:13;31.53;34.43
70234;DHT22;57622;42.630;23.378;2022-07-29T12:44:49;31.53;34.85
70234;DHT22;57622;42.630;23.378;2022-07-29T12:47:15;31.65;34.80
70234;DHT22;57622;42.630;23.378;2022-07-29T12:49:41;31.58;35.09
70234;DHT22;57622;42.630;23.378;2022-07-29T12:52:27;31.73;34.92
70234;DHT22;57622;42.630;23.378;2022-07-29T12:54:53;31.90;34.70
70234;DHT22;57622;42.630;23.378;2022-07-29T12:57:18;31.78;34.86
70234;DHT22;57622;42.630;23.378;2022-07-29T12:59:44;31.59;34.88
70234;DHT22;57622;42.630;23.378;2022-07-29T13:02:22;31.75;34.98
70234;DHT22;57622;42.630;23.378;2022-07-29T13:04:58;31.97;35.07
70234;DHT22;57622;42.630;23.378;2022-07-29T13:07:27;31.88;34.57
70234;DHT22;57622;42.630;23.378;2022-07-29T13:09:54;31.80;34.90
70234;DHT22;57622;42.630;23.378;2022-07-29T13:12:19;31.70;34.53
70234;DHT22;57622;42.630;23.378;2022-07-29T13:14:49;31.63;34.73
70234;DHT22;57622;42.630;23.378;2022-07-29T13:17:22;31.52;35.26
70234;DHT22;57622;42.630;23.378;2022-07-29T13:22:19;31.27;35.57
70234;DHT22;57622;42.630;23.378;2022-07-29T13:24:50;31.38;35.67
70234;DHT22;57622;42.630;23.378;2022-07-29T13:27:17;31.43;34.41
70234;DHT22;57622;42.630;23.378;2022-07-29T13:29:43;31.37;35.00
70234;DHT22;57622;42.630;23.378;2022-07-29T13:32:08;31.41;34.67
70234;DHT22;57622;42.630;23.378;2022-07-29T13:34:34;31.17;34.75
70234;DHT22;57622;42.630;23.378;2022-07-29T13:37:00;31.17;35.07
70234;DHT22;57622;42.630;23.378;2022-07-29T13:39:25;31.12;35.29
70234;DHT22;57622;42.630;23.378;2022-07-29T13:41:51;31.06;35.37
70234;DHT22;57622;42.630;23.378;2022-07-29T13:44:16;30.88;34.28
70234;DHT22;57622;42.630;23.378;2022-07-29T13:46:42;30.79;34.81
70234;DHT22;57622;42.630;23.378;2022-07-29T13:49:07;30.59;36.09
70234;DHT22;57622;42.630;23.378;2022-07-29T13:51:33;30.62;36.29
70234;DHT22;57622;42.630;23.378;2022-07-29T13:53:58;30.59;36.92
70234;DHT22;57622;42.630;23.378;2022-07-29T13:56:24;30.53;36.93
70234;DHT22;57622;42.630;23.378;2022-07-29T13:58:49;30.44;36.57
70234;DHT22;57622;42.630;23.378;2022-07-29T14:01:15;30.32;36.51
70234;DHT22;57622;42.630;23.378;2022-07-29T14:03:40;30.40;36.67
70234;DHT22;57622;42.630;23.378;2022-07-29T14:06:08;30.31;36.81
70234;DHT22;57622;42.630;23.378;2022-07-29T14:08:34;30.37;36.93
70234;DHT22;57622;42.630;23.378;2022-07-29T14:10:59;30.37;37.05
70234;DHT22;57622;42.630;23.378;2022-07-29T14:13:25;30.40;37.39
70234;DHT22;57622;42.630;23.378;2022-07-29T14:15:50;30.36;36.76
70234;DHT22;57622;42.630;23.378;2022-07-29T14:18:16;30.35;36.68
70234;DHT22;57622;42.630;23.378;2022-07-29T14:20:41;30.19;37.39
70234;DHT22;57622;42.630;23.378;2022-07-29T14:23:07;30.26;37.36
70234;DHT22;57622;42.630;23.378;2022-07-29T14:25:32;30.26;36.68
70234;DHT22;57622;42.630;23.378;2022-07-29T14:27:58;30.19;36.65
70234;DHT22;57622;42.630;23.378;2022-07-29T14:30:23;30.22;36.77
70234;DHT22;57622;42.630;23.378;2022-07-29T14:32:49;30.23;36.60
70234;DHT22;57622;42.630;23.378;2022-07-29T14:35:14;30.19;36.72
70234;DHT22;57622;42.630;23.378;2022-07-29T14:37:40;30.21;36.30
70234;DHT22;57622;42.630;23.378;2022-07-29T14:40:06;30.28;36.47
70234;DHT22;57622;42.630;23.378;2022-07-29T14:42:31;30.15;36.15
70234;DHT22;57622;42.630;23.378;2022-07-29T14:44:57;30.25;35.82
70234;DHT22;57622;42.630;23.378;2022-07-29T14:47:23;30.08;35.43
70234;DHT22;57622;42.630;23.378;2022-07-29T14:49:49;29.97;36.50
70234;DHT22;57622;42.630;23.378;2022-07-29T14:52:14;29.97;36.02
70234;DHT22;57622;42.630;23.378;2022-07-29T14:54:40;29.95;35.27
70234;DHT22;57622;42.630;23.378;2022-07-29T14:57:05;29.97;36.13
70234;DHT22;57622;42.630;23.378;2022-07-29T14:59:31;29.91;35.92
70234;DHT22;57622;42.630;23.378;2022-07-29T15:01:56;29.88;35.51
70234;DHT22;57622;42.630;23.378;2022-07-29T15:04:22;29.88;35.93
70234;DHT22;57622;42.630;23.378;2022-07-29T15:06:48;29.88;35.66
70234;DHT22;57622;42.630;23.378;2022-07-29T15:09:13;29.81;36.08
70234;DHT22;57622;42.630;23.378;2022-07-29T15:11:39;29.91;36.05
70234;DHT22;57622;42.630;23.378;2022-07-29T15:14:05;29.91;35.97
70234;DHT22;57622;42.630;23.378;2022-07-29T15:16:31;29.85;35.83
70234;DHT22;57622;42.630;23.378;2022-07-29T15:18:56;29.81;35.75
70234;DHT22;57622;42.630;23.378;2022-07-29T15:21:23;29.85;35.86
70234;DHT22;57622;42.630;23.378;2022-07-29T15:23:48;29.82;35.91
70234;DHT22;57622;42.630;23.378;2022-07-29T15:26:14;29.75;36.14
70234;DHT22;57622;42.630;23.378;2022-07-29T15:28:39;29.68;36.51
70234;DHT22;57622;42.630;23.378;2022-07-29T15:31:05;29.73;36.65
70234;DHT22;57622;42.630;23.378;2022-07-29T15:33:31;29.73;36.75
70234;DHT22;57622;42.630;23.378;2022-07-29T15:35:56;29.70;36.80
70234;DHT22;57622;42.630;23.378;2022-07-29T15:38:22;29.70;36.98
70234;DHT22;57622;42.630;23.378;2022-07-29T15:40:47;29.67;37.21
70234;DHT22;57622;42.630;23.378;2022-07-29T15:43:13;29.63;36.99
70234;DHT22;57622;42.630;23.378;2022-07-29T15:45:40;29.53;37.49
70234;DHT22;57622;42.630;23.378;2022-07-29T15:48:07;29.51;37.52
70234;DHT22;57622;42.630;23.378;2022-07-29T15:50:33;29.43;37.42
70234;DHT22;57622;42.630;23.378;2022-07-29T15:52:59;29.30;37.75
70234;DHT22;57622;42.630;23.378;2022-07-29T15:55:24;29.31;37.89
70234;DHT22;57622;42.630;23.378;2022-07-29T15:57:50;29.29;37.97
70234;DHT22;57622;42.630;23.378;2022-07-29T16:00:16;29.26;38.32